Time;durP1;ratioP1;P1;durP2;ratioP2;P2;SDS_P1;SDS_P2;PMS_P1;PMS_P2;Temp;Humidity;BMP_temperature;BMP_pressure;BME280_temperature;BME280_humidity;BME280_pressure;Samples;Min_cycle;Max_cycle;Signal;HPM_P1;HPM_P2
2022/10/14 00:00:15;;;;;;;42.83;26.33;;;11.80;99.90;;;;;;5089094;28;20562;-42
2022/10/14 00:02:41;;;;;;;48.40;27.52;;;11.50;99.90;;;;;;5088526;28;20051;-43
2022/10/14 00:05:08;;;;;;;47.55;28.10;;;11.70;99.90;;;;;;5090274;28;20032;-43
2022/10/14 00:07:35;;;;;;;56.90;26.42;;;11.40;99.90;;;;;;5087341;28;20047;-43
2022/10/14 00:10:00;;;;;;;66.95;29.80;;;11.40;99.90;;;;;;5090123;28;20044;-44
2022/10/14 00:12:28;;;;;;;74.20;33.00;;;11.40;99.90;;;;;;5090308;28;21863;-42
2022/10/14 00:14:53;;;;;;;116.72;28.13;;;11.80;99.90;;;;;;5090223;28;20050;-43
2022/10/14 00:17:19;;;;;;;164.93;29.83;;;11.40;99.90;;;;;;5089627;28;20479;-42
2022/10/14 00:19:45;;;;;;;138.90;32.15;;;11.70;99.90;;;;;;5088678;28;20043;-42
2022/10/14 00:22:10;;;;;;;198.48;31.13;;;11.40;99.90;;;;;;5089811;28;20403;-44
2022/10/14 00:24:36;;;;;;;122.10;26.90;;;11.30;99.90;;;;;;5088490;28;20067;-42
2022/10/14 00:27:05;;;;;;;176.27;35.47;;;11.60;99.90;;;;;;5088863;28;20048;-45
2022/10/14 00:29:31;;;;;;;166.30;28.35;;;11.20;99.90;;;;;;5088384;28;20043;-43
2022/10/14 00:31:57;;;;;;;230.85;30.08;;;11.50;99.90;;;;;;5089147;28;20085;-43
2022/10/14 00:34:22;;;;;;;330.35;34.83;;;11.60;99.90;;;;;;5089482;28;20130;-42
2022/10/14 00:36:48;;;;;;;154.68;29.10;;;11.40;99.90;;;;;;5089854;28;20040;-43
2022/10/14 00:39:15;;;;;;;185.98;39.72;;;11.50;99.90;;;;;;5089798;28;20032;-42
2022/10/14 00:41:41;;;;;;;324.52;37.92;;;11.60;99.90;;;;;;5089607;28;20127;-42
2022/10/14 00:44:27;;;;;;;240.27;37.30;;;11.30;99.90;;;;;;5089756;28;20036;-43
2022/10/14 00:46:54;;;;;;;210.70;33.17;;;11.20;99.90;;;;;;5089582;28;20178;-42
2022/10/14 00:49:25;;;;;;;263.40;38.28;;;11.50;99.90;;;;;;5088949;28;20115;-42
2022/10/14 00:51:54;;;;;;;305.10;40.50;;;11.00;99.90;;;;;;5086800;28;20040;-44
2022/10/14 00:54:22;;;;;;;229.63;38.65;;;11.20;99.90;;;;;;5089643;28;20360;-42
2022/10/14 00:56:49;;;;;;;184.32;36.58;;;11.00;99.90;;;;;;5089205;28;20089;-42
2022/10/14 00:59:15;;;;;;;242.98;46.33;;;11.00;99.90;;;;;;5088069;28;20036;-42
2022/10/14 01:01:40;;;;;;;372.77;43.72;;;11.30;99.90;;;;;;5089309;28;20089;-42
2022/10/14 01:04:06;;;;;;;196.18;36.58;;;11.30;99.90;;;;;;5089518;28;20111;-43
2022/10/14 01:06:47;;;;;;;348.55;42.13;;;11.00;99.90;;;;;;5087694;28;20027;-42
2022/10/14 01:09:27;;;;;;;293.67;40.90;;;11.20;99.90;;;;;;5088237;28;20394;-42
2022/10/14 01:12:13;;;;;;;321.80;42.67;;;11.30;99.90;;;;;;5088615;28;20111;-44
2022/10/14 01:14:39;;;;;;;231.02;36.65;;;11.20;99.90;;;;;;5089276;28;20039;-44
2022/10/14 01:17:27;;;;;;;247.95;36.67;;;10.80;99.90;;;;;;5089382;28;20043;-43
2022/10/14 01:20:26;;;;;;;226.13;35.58;;;10.80;99.90;;;;;;5088380;28;20036;-44
2022/10/14 01:23:26;;;;;;;224.40;33.17;;;11.10;99.90;;;;;;5089437;28;20032;-43
2022/10/14 01:25:57;;;;;;;166.38;29.02;;;11.00;99.90;;;;;;5088009;28;20046;-42
2022/10/14 01:29:05;;;;;;;181.70;27.65;;;11.00;99.90;;;;;;5089035;28;20050;-43
2022/10/14 01:31:34;;;;;;;267.48;31.75;;;10.50;99.90;;;;;;5048054;28;20056;-44
2022/10/14 01:34:04;;;;;;;211.73;27.08;;;10.50;99.90;;;;;;5089062;28;20142;-42
2022/10/14 01:36:47;;;;;;;190.85;28.02;;;10.40;99.90;;;;;;5088232;28;20113;-42
2022/10/14 01:39:30;;;;;;;202.70;26.10;;;10.30;99.90;;;;;;5092769;28;20036;-43
2022/10/14 01:42:10;;;;;;;187.43;24.85;;;10.30;99.90;;;;;;5091804;28;20481;-42
2022/10/14 01:44:40;;;;;;;167.30;26.08;;;10.50;99.90;;;;;;5092433;28;20039;-42
2022/10/14 01:47:07;;;;;;;162.15;22.95;;;10.20;99.90;;;;;;5091667;28;20051;-43
2022/10/14 01:49:41;;;;;;;174.32;22.20;;;10.10;99.90;;;;;;5092886;28;20043;-43
2022/10/14 01:52:15;;;;;;;160.10;21.33;;;10.40;99.90;;;;;;5093165;28;20036;-42
2022/10/14 01:54:43;;;;;;;185.35;18.48;;;10.00;99.90;;;;;;5091698;28;20373;-42
2022/10/14 01:57:13;;;;;;;137.25;20.02;;;10.00;99.90;;;;;;5092642;28;20174;-42
2022/10/14 01:59:40;;;;;;;214.45;18.83;;;10.30;99.90;;;;;;5090819;28;20039;-42
2022/10/14 02:02:06;;;;;;;113.90;17.90;;;10.00;99.90;;;;;;5091129;28;20048;-43
2022/10/14 02:04:31;;;;;;;211.68;21.20;;;10.00;99.90;;;;;;5091089;28;20526;-42
2022/10/14 02:07:02;;;;;;;104.63;18.65;;;10.20;99.90;;;;;;5092704;28;20032;-44
2022/10/14 02:09:37;;;;;;;116.10;21.13;;;10.00;99.90;;;;;;5091254;28;20036;-43
2022/10/14 02:12:36;;;;;;;132.07;18.50;;;10.40;99.90;;;;;;5089942;28;20040;-42
2022/10/14 02:15:14;;;;;;;207.82;21.65;;;10.00;99.90;;;;;;5091796;28;20051;-43
2022/10/14 02:17:57;;;;;;;177.48;19.50;;;10.10;99.90;;;;;;5091180;28;20040;-42
2022/10/14 02:20:28;;;;;;;120.50;16.42;;;9.90;99.90;;;;;;5091862;28;20162;-44
2022/10/14 02:22:59;;;;;;;213.55;19.48;;;10.30;99.90;;;;;;5089333;28;20032;-42
2022/10/14 02:25:30;;;;;;;161.63;19.10;;;10.20;99.90;;;;;;5092073;28;20093;-45
2022/10/14 02:27:58;;;;;;;102.28;17.10;;;10.10;99.90;;;;;;5090951;28;20036;-42
2022/10/14 02:30:26;;;;;;;105.32;19.02;;;10.20;99.90;;;;;;5092235;28;20130;-44
2022/10/14 02:32:52;;;;;;;98.97;20.38;;;10.10;99.90;;;;;;5090738;28;20066;-42
2022/10/14 02:35:22;;;;;;;156.00;22.00;;;9.90;99.90;;;;;;5091686;28;20052;-43
2022/10/14 02:37:50;;;;;;;98.30;21.25;;;10.30;99.90;;;;;;5091883;28;20200;-42
2022/10/14 02:40:38;;;;;;;132.63;22.27;;;10.10;99.90;;;;;;5091304;28;20447;-41
2022/10/14 02:43:06;;;;;;;131.15;21.40;;;10.30;99.90;;;;;;5090353;28;20036;-42
2022/10/14 02:45:33;;;;;;;161.93;22.20;;;10.00;99.90;;;;;;5090551;28;20113;-45
2022/10/14 02:47:59;;;;;;;140.25;18.85;;;10.00;99.90;;;;;;5091509;28;20514;-42
2022/10/14 02:50:24;;;;;;;183.95;16.15;;;10.10;99.90;;;;;;5090928;28;20071;-45
2022/10/14 02:52:50;;;;;;;128.32;14.32;;;10.30;99.90;;;;;;5092540;28;20036;-42
2022/10/14 02:55:16;;;;;;;68.40;12.82;;;10.10;99.90;;;;;;5091919;28;20035;-42
2022/10/14 02:57:41;;;;;;;169.32;14.77;;;10.40;99.90;;;;;;5091543;28;20040;-42
2022/10/14 03:00:07;;;;;;;138.65;13.90;;;10.00;99.90;;;;;;5073153;28;20040;-42
2022/10/14 03:02:33;;;;;;;96.13;12.52;;;10.20;99.90;;;;;;5091674;28;20032;-42
2022/10/14 03:04:59;;;;;;;97.75;12.73;;;10.20;99.90;;;;;;5091141;28;20062;-44
2022/10/14 03:07:25;;;;;;;133.48;12.88;;;10.10;99.90;;;;;;5088699;28;20391;-42
2022/10/14 03:09:50;;;;;;;104.38;12.50;;;10.00;99.90;;;;;;5090079;28;20391;-43
2022/10/14 03:12:16;;;;;;;107.65;13.40;;;10.10;99.90;;;;;;5091214;28;20127;-42
2022/10/14 03:14:42;;;;;;;107.90;12.00;;;10.00;99.90;;;;;;5091046;28;20364;-44
2022/10/14 03:17:08;;;;;;;94.85;14.07;;;10.30;99.90;;;;;;5089544;28;20057;-42
2022/10/14 03:19:34;;;;;;;80.28;12.13;;;10.20;99.90;;;;;;5090878;28;20110;-41
2022/10/14 03:22:00;;;;;;;192.85;16.02;;;9.90;99.90;;;;;;5091148;28;20089;-42
2022/10/14 03:24:25;;;;;;;73.78;12.25;;;10.30;99.90;;;;;;5088878;28;20441;-42
2022/10/14 03:26:51;;;;;;;104.47;16.17;;;10.30;99.90;;;;;;5091583;28;20032;-42
2022/10/14 03:29:17;;;;;;;137.50;16.75;;;10.30;99.90;;;;;;5091475;28;20047;-42
2022/10/14 03:31:43;;;;;;;122.13;17.40;;;10.10;99.90;;;;;;5090736;28;20074;-42
2022/10/14 03:34:09;;;;;;;135.70;16.38;;;10.00;99.90;;;;;;5090489;28;20062;-42
2022/10/14 03:36:34;;;;;;;99.22;16.52;;;10.00;99.90;;;;;;5090715;28;20040;-42
2022/10/14 03:39:00;;;;;;;106.80;16.15;;;10.30;99.90;;;;;;5090696;28;20383;-42
2022/10/14 03:41:26;;;;;;;67.70;15.63;;;10.00;99.90;;;;;;5090867;28;20043;-44
2022/10/14 03:43:52;;;;;;;134.65;19.58;;;10.30;99.90;;;;;;5090374;28;20036;-42
2022/10/14 03:46:17;;;;;;;110.07;18.88;;;10.20;99.90;;;;;;5090298;28;20036;-44
2022/10/14 03:48:43;;;;;;;110.75;19.33;;;10.40;99.90;;;;;;5090321;28;20040;-42
2022/10/14 03:51:09;;;;;;;93.20;19.80;;;10.40;99.90;;;;;;5090196;28;20047;-44
2022/10/14 03:53:34;;;;;;;101.90;20.10;;;10.10;99.90;;;;;;5087489;28;20044;-43
2022/10/14 03:56:00;;;;;;;82.25;19.08;;;10.40;99.90;;;;;;5090121;28;20036;-43
2022/10/14 03:58:26;;;;;;;96.65;19.73;;;10.10;99.90;;;;;;5090111;28;20088;-42
2022/10/14 04:00:52;;;;;;;86.40;20.48;;;10.10;99.90;;;;;;5090087;28;20047;-42
2022/10/14 04:03:17;;;;;;;76.53;19.05;;;10.20;99.90;;;;;;5090020;28;20636;-43
2022/10/14 04:05:43;;;;;;;80.63;19.17;;;10.10;99.90;;;;;;5090337;28;20036;-42
2022/10/14 04:08:08;;;;;;;89.07;20.02;;;10.50;99.90;;;;;;5090042;28;20032;-41
2022/10/14 04:10:34;;;;;;;77.32;20.95;;;10.20;99.90;;;;;;5089822;28;20340;-42
2022/10/14 04:13:00;;;;;;;79.57;19.45;;;10.20;99.90;;;;;;5090106;28;20454;-42
2022/10/14 04:15:26;;;;;;;82.80;21.30;;;10.10;99.90;;;;;;5089863;28;20028;-42
2022/10/14 04:17:52;;;;;;;78.80;20.90;;;10.10;99.90;;;;;;5089596;28;20139;-42
2022/10/14 04:20:18;;;;;;;75.82;20.13;;;10.40;99.90;;;;;;5089985;28;20111;-43
2022/10/14 04:22:44;;;;;;;64.05;19.42;;;10.20;99.90;;;;;;5090032;28;20032;-42
2022/10/14 04:25:10;;;;;;;68.13;20.13;;;10.00;99.90;;;;;;5087916;28;20066;-42
2022/10/14 04:27:35;;;;;;;70.57;20.92;;;10.10;99.90;;;;;;5088456;28;20040;-42
2022/10/14 04:30:01;;;;;;;68.90;19.70;;;10.50;99.90;;;;;;5089772;28;20441;-41
2022/10/14 04:32:27;;;;;;;64.00;21.40;;;10.00;99.90;;;;;;5088309;28;20036;-41
2022/10/14 04:34:53;;;;;;;66.45;19.90;;;10.10;99.90;;;;;;5089583;28;20598;-42
2022/10/14 04:37:19;;;;;;;63.92;20.38;;;10.30;99.90;;;;;;5087390;28;20134;-43
2022/10/14 04:39:45;;;;;;;83.82;20.80;;;10.50;99.90;;;;;;5089916;28;20118;-42
2022/10/14 04:42:11;;;;;;;93.28;20.58;;;10.10;99.90;;;;;;5089405;28;20039;-44
2022/10/14 04:44:36;;;;;;;85.25;22.15;;;10.30;99.90;;;;;;5089510;28;20074;-45
2022/10/14 04:47:05;;;;;;;70.43;20.75;;;10.20;99.90;;;;;;5089834;28;20089;-44
2022/10/14 04:49:30;;;;;;;81.32;21.88;;;10.20;99.90;;;;;;5089301;28;20044;-43
2022/10/14 04:51:56;;;;;;;105.50;22.58;;;10.20;99.90;;;;;;5089762;28;20463;-43
2022/10/14 04:54:22;;;;;;;92.28;20.98;;;10.50;99.90;;;;;;5089768;28;20107;-42
2022/10/14 04:56:48;;;;;;;132.50;24.00;;;10.50;99.90;;;;;;5089549;28;20036;-42
2022/10/14 04:59:13;;;;;;;104.80;21.30;;;10.40;99.90;;;;;;5089535;28;20130;-42
2022/10/14 05:01:39;;;;;;;126.78;24.38;;;10.10;99.90;;;;;;5089270;28;20506;-43
2022/10/14 05:04:05;;;;;;;153.98;25.58;;;10.00;99.90;;;;;;5089558;28;20032;-43
2022/10/14 05:06:30;;;;;;;110.95;21.55;;;10.50;99.90;;;;;;5089429;28;20605;-42
2022/10/14 05:08:56;;;;;;;131.48;24.25;;;10.00;99.90;;;;;;5089461;28;20095;-42
2022/10/14 05:11:22;;;;;;;183.50;26.23;;;10.30;99.90;;;;;;5089519;28;20047;-44
2022/10/14 05:13:48;;;;;;;205.80;30.10;;;10.40;99.90;;;;;;5092920;28;20537;-42
2022/10/14 05:16:13;;;;;;;206.23;29.05;;;10.50;99.90;;;;;;5093153;28;20032;-42
2022/10/14 05:18:39;;;;;;;214.77;30.23;;;10.20;99.90;;;;;;5092847;28;20036;-44
2022/10/14 05:21:05;;;;;;;212.23;28.63;;;10.10;99.90;;;;;;5093163;28;20063;-44
2022/10/14 05:23:31;;;;;;;217.02;30.80;;;10.30;99.90;;;;;;5091250;28;20028;-43
2022/10/14 05:25:56;;;;;;;111.20;26.45;;;10.20;99.90;;;;;;5092727;28;20042;-42
2022/10/14 05:28:22;;;;;;;218.38;28.88;;;10.60;99.90;;;;;;5091344;28;20035;-42
2022/10/14 05:30:48;;;;;;;218.93;30.33;;;10.40;99.90;;;;;;5093124;28;20042;-42
2022/10/14 05:33:14;;;;;;;296.13;34.47;;;10.30;99.90;;;;;;5091889;28;20118;-43
2022/10/14 05:35:41;;;;;;;263.33;31.80;;;10.30;99.90;;;;;;5091458;28;20934;-44
2022/10/14 05:38:07;;;;;;;171.13;29.55;;;10.30;99.90;;;;;;5092779;28;20039;-42
2022/10/14 05:40:33;;;;;;;194.85;31.45;;;10.70;99.90;;;;;;5093105;28;20036;-44
2022/10/14 05:42:59;;;;;;;159.98;31.08;;;10.80;99.90;;;;;;5093071;28;20040;-43
2022/10/14 05:45:25;;;;;;;185.18;30.73;;;10.50;99.90;;;;;;5093239;28;20032;-43
2022/10/14 05:47:51;;;;;;;190.38;31.15;;;10.30;99.90;;;;;;5092561;28;20121;-42
2022/10/14 05:50:17;;;;;;;96.50;26.52;;;10.30;99.90;;;;;;5091489;28;20043;-42
2022/10/14 05:52:43;;;;;;;138.43;29.35;;;10.70;99.90;;;;;;5092468;28;20046;-42
2022/10/14 05:55:09;;;;;;;178.90;31.35;;;10.60;99.90;;;;;;5090103;28;20054;-42
2022/10/14 05:57:34;;;;;;;145.32;29.00;;;10.30;99.90;;;;;;5090057;28;20036;-43
2022/10/14 06:00:00;;;;;;;129.82;28.50;;;11.00;99.90;;;;;;5091148;28;20043;-43
2022/10/14 06:02:26;;;;;;;119.75;28.13;;;10.40;99.90;;;;;;5092420;28;20067;-45
2022/10/14 06:04:52;;;;;;;122.95;29.05;;;10.40;99.90;;;;;;5090212;28;20063;-41
2022/10/14 06:07:18;;;;;;;162.75;34.97;;;10.80;99.90;;;;;;5089850;28;20394;-42
2022/10/14 06:09:44;;;;;;;134.27;28.55;;;10.80;99.90;;;;;;5092700;28;20082;-45
2022/10/14 06:12:10;;;;;;;139.35;31.35;;;10.40;99.90;;;;;;5092031;28;20075;-42
2022/10/14 06:14:38;;;;;;;113.75;28.27;;;10.50;99.90;;;;;;5092303;28;20075;-42
2022/10/14 06:17:05;;;;;;;121.38;27.77;;;10.80;99.90;;;;;;5092387;28;20123;-42
2022/10/14 06:19:31;;;;;;;125.35;28.45;;;10.50;99.90;;;;;;5091809;28;20085;-42
2022/10/14 06:21:57;;;;;;;126.10;27.45;;;10.40;99.90;;;;;;5092267;28;20031;-41
2022/10/14 06:24:23;;;;;;;169.50;29.10;;;10.70;99.90;;;;;;5090997;28;20089;-43
2022/10/14 06:26:48;;;;;;;128.82;27.80;;;10.80;99.90;;;;;;5091937;28;20075;-42
2022/10/14 06:29:15;;;;;;;134.60;29.23;;;10.90;99.90;;;;;;5092352;28;20032;-42
2022/10/14 06:31:41;;;;;;;98.10;26.35;;;10.50;99.90;;;;;;5091573;28;20127;-43
2022/10/14 06:34:07;;;;;;;105.57;27.45;;;10.60;99.90;;;;;;5092323;28;20052;-41
2022/10/14 06:36:33;;;;;;;94.85;27.52;;;10.70;99.90;;;;;;5091721;28;20411;-42
2022/10/14 06:38:59;;;;;;;106.95;28.02;;;10.70;99.90;;;;;;5091629;28;20236;-41
2022/10/14 06:41:25;;;;;;;104.50;28.27;;;10.80;99.90;;;;;;5087567;28;20135;-42
2022/10/14 06:43:51;;;;;;;104.38;28.42;;;10.50;99.90;;;;;;5090299;28;20185;-45
2022/10/14 06:46:17;;;;;;;104.72;29.98;;;10.70;99.90;;;;;;5090708;28;20127;-42
2022/10/14 06:48:42;;;;;;;89.05;28.55;;;10.80;99.90;;;;;;5089879;28;20040;-43
2022/10/14 06:51:08;;;;;;;91.88;27.42;;;11.00;99.90;;;;;;5089854;28;20518;-42
2022/10/14 06:53:34;;;;;;;99.57;31.33;;;11.00;99.90;;;;;;5087109;28;20352;-42
2022/10/14 06:56:02;;;;;;;89.97;28.42;;;10.70;99.90;;;;;;5090266;28;20036;-42
2022/10/14 06:58:29;;;;;;;92.63;28.63;;;10.80;99.90;;;;;;5089648;28;20047;-43
2022/10/14 07:00:59;;;;;;;91.63;27.77;;;10.70;99.90;;;;;;5087799;28;20048;-42
2022/10/14 07:03:25;;;;;;;93.82;28.08;;;10.90;99.90;;;;;;5088705;28;20048;-42
2022/10/14 07:05:50;;;;;;;84.22;28.25;;;10.70;99.90;;;;;;5088954;28;20062;-42
2022/10/14 07:08:16;;;;;;;80.70;27.88;;;10.70;99.90;;;;;;5088899;28;20036;-42
2022/10/14 07:10:42;;;;;;;88.32;30.00;;;10.80;99.90;;;;;;5088901;28;20031;-42
2022/10/14 07:13:08;;;;;;;79.72;28.15;;;10.70;99.90;;;;;;5089059;28;20066;-43
2022/10/14 07:15:33;;;;;;;86.53;31.33;;;11.20;99.90;;;;;;5088240;28;20028;-44
2022/10/14 07:17:59;;;;;;;83.32;28.42;;;11.00;99.90;;;;;;5087432;28;20048;-42
2022/10/14 07:20:25;;;;;;;90.25;30.00;;;11.20;99.90;;;;;;5080810;28;20325;-42
2022/10/14 07:22:55;;;;;;;97.47;32.10;;;10.80;99.90;;;;;;5084940;28;20374;-42
2022/10/14 07:25:20;;;;;;;99.90;33.22;;;11.10;99.90;;;;;;5080991;28;21164;-42
2022/10/14 07:27:46;;;;;;;97.47;32.92;;;11.20;99.90;;;;;;5068746;28;20054;-42
2022/10/14 07:30:12;;;;;;;97.32;33.53;;;11.30;99.90;;;;;;5088891;28;20054;-42
2022/10/14 07:32:38;;;;;;;100.13;34.00;;;11.10;99.90;;;;;;5087269;28;20044;-44
2022/10/14 07:35:04;;;;;;;104.63;33.95;;;11.30;99.90;;;;;;5087957;28;20051;-44
2022/10/14 07:37:29;;;;;;;110.18;35.58;;;10.70;99.90;;;;;;5086062;28;20034;-42
2022/10/14 07:39:55;;;;;;;100.07;35.70;;;11.40;99.90;;;;;;5086916;28;20043;-42
2022/10/14 07:42:21;;;;;;;113.28;38.03;;;11.00;99.90;;;;;;5086219;28;20047;-42
2022/10/14 07:44:46;;;;;;;101.78;35.42;;;11.50;99.90;;;;;;5088527;28;20032;-42
2022/10/14 07:47:12;;;;;;;106.45;36.55;;;11.30;99.90;;;;;;5087285;28;20395;-43
2022/10/14 07:49:38;;;;;;;110.60;36.55;;;11.30;99.90;;;;;;5088195;28;20479;-42
2022/10/14 07:52:04;;;;;;;132.35;47.13;;;11.10;99.90;;;;;;5088126;28;20032;-42
2022/10/14 07:54:31;;;;;;;117.10;39.28;;;11.60;99.90;;;;;;5088173;28;20077;-42
2022/10/14 07:56:57;;;;;;;117.72;37.80;;;11.50;99.90;;;;;;5086069;28;20044;-44
2022/10/14 07:59:24;;;;;;;124.78;40.05;;;11.70;99.90;;;;;;5088328;28;20055;-43
2022/10/14 08:01:51;;;;;;;123.88;39.40;;;11.60;99.90;;;;;;5085202;28;20076;-42
2022/10/14 08:04:17;;;;;;;132.38;40.92;;;11.30;99.90;;;;;;5088390;28;20043;-42
2022/10/14 08:06:45;;;;;;;130.40;41.10;;;11.60;99.90;;;;;;5087582;28;20039;-43
2022/10/14 08:09:11;;;;;;;129.02;38.95;;;11.50;99.90;;;;;;5085498;28;20514;-44
2022/10/14 08:11:37;;;;;;;114.60;38.88;;;11.20;99.90;;;;;;5078206;28;20033;-42
2022/10/14 08:14:05;;;;;;;139.90;39.25;;;11.50;99.90;;;;;;5084094;28;20124;-43
2022/10/14 08:16:33;;;;;;;133.65;40.90;;;11.20;99.90;;;;;;5083704;28;20040;-43
2022/10/14 08:19:03;;;;;;;137.07;40.55;;;11.60;99.90;;;;;;5081159;28;20124;-43
2022/10/14 08:21:29;;;;;;;133.98;39.92;;;11.30;99.90;;;;;;5084588;28;20538;-43
2022/10/14 08:23:54;;;;;;;138.35;40.33;;;11.70;99.90;;;;;;5081834;28;20036;-42
2022/10/14 08:26:21;;;;;;;134.10;39.33;;;11.30;99.90;;;;;;5081952;28;20048;-42
2022/10/14 08:28:49;;;;;;;133.10;38.80;;;11.60;99.90;;;;;;5082322;28;20123;-42
2022/10/14 08:31:15;;;;;;;128.40;38.78;;;11.70;99.90;;;;;;5079733;28;20086;-42
2022/10/14 08:33:40;;;;;;;137.90;39.20;;;11.80;99.90;;;;;;5082682;28;20522;-42
2022/10/14 08:36:07;;;;;;;139.20;42.72;;;11.50;99.90;;;;;;5081443;28;20051;-43
2022/10/14 08:38:32;;;;;;;115.80;36.05;;;11.60;99.90;;;;;;5083981;28;20044;-43
2022/10/14 08:41:28;;;;;;;139.68;43.50;;;11.40;99.90;;;;;;5079774;28;20036;-42
2022/10/14 08:44:05;;;;;;;115.85;33.92;;;11.70;99.90;;;;;;5084112;28;20111;-42
2022/10/14 08:46:50;;;;;;;120.32;34.10;;;11.50;99.90;;;;;;5079766;28;20044;-42
2022/10/14 08:49:38;;;;;;;119.00;34.05;;;12.00;99.90;;;;;;5083841;28;20032;-41
2022/10/14 08:52:16;;;;;;;101.78;32.10;;;11.70;99.90;;;;;;5080166;28;20117;-42
2022/10/14 08:54:50;;;;;;;102.57;31.90;;;12.00;99.90;;;;;;5081363;28;20071;-43
2022/10/14 08:57:26;;;;;;;113.10;32.22;;;11.60;99.90;;;;;;5083864;28;20036;-42
2022/10/14 08:59:52;;;;;;;104.30;30.92;;;12.00;99.90;;;;;;5077887;28;20043;-45
2022/10/14 09:02:37;;;;;;;107.55;33.22;;;12.00;99.90;;;;;;5079136;28;20055;-42
2022/10/14 09:05:05;;;;;;;110.43;32.03;;;11.90;99.90;;;;;;5082154;28;20448;-42
2022/10/14 09:07:34;;;;;;;93.50;31.38;;;11.60;99.90;;;;;;5078859;28;20051;-46
2022/10/14 09:10:24;;;;;;;103.28;36.33;;;11.90;99.90;;;;;;5084698;28;20123;-44
2022/10/14 09:12:52;;;;;;;92.57;29.40;;;11.70;99.90;;;;;;5069219;28;20052;-43
2022/10/14 09:15:43;;;;;;;93.85;34.28;;;11.70;99.90;;;;;;5078371;28;20040;-43
2022/10/14 09:18:19;;;;;;;91.20;26.25;;;11.70;99.90;;;;;;5080809;28;20047;-44
2022/10/14 09:20:46;;;;;;;84.72;27.20;;;12.10;99.90;;;;;;5078601;28;20036;-43
2022/10/14 09:23:16;;;;;;;71.40;25.80;;;12.20;99.90;;;;;;5079414;28;20044;-44
2022/10/14 09:25:56;;;;;;;73.63;25.25;;;12.20;99.90;;;;;;5081474;28;20483;-43
2022/10/14 09:28:37;;;;;;;92.85;31.60;;;12.20;99.90;;;;;;5079183;28;20047;-41
2022/10/14 09:31:04;;;;;;;67.57;23.50;;;12.10;99.90;;;;;;5080394;28;20568;-42
2022/10/14 09:33:30;;;;;;;76.00;24.98;;;12.10;99.90;;;;;;5081436;28;20067;-42
2022/10/14 09:35:57;;;;;;;79.80;25.00;;;12.00;99.90;;;;;;5077853;28;20076;-44
2022/10/14 09:38:24;;;;;;;71.30;25.27;;;12.30;99.90;;;;;;5082513;28;20115;-43
2022/10/14 09:40:55;;;;;;;70.25;25.30;;;11.90;99.90;;;;;;5081052;28;20043;-41
2022/10/14 09:43:23;;;;;;;69.47;24.25;;;11.90;99.90;;;;;;5083259;28;20119;-43
2022/10/14 09:45:58;;;;;;;69.50;23.83;;;12.10;99.90;;;;;;5086636;28;20537;-43
2022/10/14 09:48:43;;;;;;;78.20;25.20;;;12.20;99.90;;;;;;5086196;28;20111;-43
2022/10/14 09:51:21;;;;;;;73.20;24.60;;;12.10;99.90;;;;;;5084553;28;20044;-43
2022/10/14 09:53:53;;;;;;;74.70;24.95;;;12.10;99.90;;;;;;5082131;28;20055;-45
2022/10/14 09:56:31;;;;;;;74.70;24.50;;;12.10;99.90;;;;;;5085875;28;20043;-44
2022/10/14 09:58:57;;;;;;;83.15;31.33;;;12.20;99.90;;;;;;5086893;28;20032;-41
2022/10/14 10:01:28;;;;;;;75.57;24.27;;;12.40;99.90;;;;;;5088605;28;20047;-44
2022/10/14 10:03:55;;;;;;;90.68;27.33;;;12.50;99.90;;;;;;5084394;28;20036;-41
2022/10/14 10:06:25;;;;;;;111.00;27.85;;;12.70;99.90;;;;;;5089706;28;20044;-46
2022/10/14 10:08:56;;;;;;;92.30;32.85;;;12.60;99.90;;;;;;5090743;28;20442;-43
2022/10/14 10:11:29;;;;;;;104.60;29.77;;;12.70;99.90;;;;;;5086663;28;20054;-43
2022/10/14 10:13:55;;;;;;;96.65;35.13;;;12.30;99.90;;;;;;5085917;28;20040;-43
2022/10/14 10:16:33;;;;;;;96.32;29.45;;;12.40;99.90;;;;;;5088048;28;20301;-41
2022/10/14 10:19:19;;;;;;;93.10;30.10;;;12.80;99.90;;;;;;5085276;28;20036;-41
2022/10/14 10:21:46;;;;;;;105.47;31.80;;;12.50;99.90;;;;;;5088156;28;20075;-41
2022/10/14 10:24:22;;;;;;;119.50;32.75;;;12.50;99.90;;;;;;5089569;28;20047;-43
2022/10/14 10:26:48;;;;;;;115.30;38.45;;;12.40;99.90;;;;;;5087585;28;20321;-42
2022/10/14 10:29:31;;;;;;;127.70;33.97;;;12.60;99.90;;;;;;5088951;28;20036;-41
2022/10/14 10:32:11;;;;;;;105.50;33.38;;;13.00;99.90;;;;;;5089038;28;20039;-44
2022/10/14 10:35:02;;;;;;;110.85;33.92;;;12.70;99.90;;;;;;5087601;28;20144;-41
2022/10/14 10:37:32;;;;;;;121.18;41.28;;;12.60;99.90;;;;;;5087977;28;20507;-42
2022/10/14 10:40:19;;;;;;;136.18;43.03;;;12.80;99.90;;;;;;5087548;28;20040;-41
2022/10/14 10:43:15;;;;;;;128.07;43.97;;;13.20;99.90;;;;;;5088527;28;20043;-43
2022/10/14 10:45:53;;;;;;;144.70;36.92;;;13.20;99.90;;;;;;5087704;28;20047;-42
2022/10/14 10:48:32;;;;;;;129.73;43.45;;;13.00;99.90;;;;;;5087732;28;20131;-42
2022/10/14 10:51:16;;;;;;;113.97;37.30;;;13.40;99.90;;;;;;5083132;28;20032;-42
2022/10/14 10:54:01;;;;;;;140.18;43.28;;;13.00;99.90;;;;;;5087916;28;20613;-43
2022/10/14 10:56:50;;;;;;;124.40;37.63;;;13.20;99.90;;;;;;5083444;28;20045;-43
2022/10/14 10:59:44;;;;;;;132.77;41.58;;;13.00;99.90;;;;;;5086299;28;20040;-43
2022/10/14 11:02:46;;;;;;;132.90;41.70;;;13.40;99.90;;;;;;5078948;28;20048;-41
2022/10/14 11:05:29;;;;;;;115.55;39.60;;;13.50;99.90;;;;;;5082361;28;20042;-43
2022/10/14 11:14:34;;;;;;;88.10;35.50;;;13.70;99.90;;;;;;5052327;28;20048;-44
2022/10/14 11:17:18;;;;;;;88.88;30.17;;;13.20;99.90;;;;;;5079139;28;20036;-41
2022/10/14 11:20:04;;;;;;;74.75;32.25;;;13.70;99.90;;;;;;5075433;28;20040;-42
2022/10/14 11:22:49;;;;;;;73.07;29.85;;;13.80;99.90;;;;;;5079207;28;20602;-42
2022/10/14 11:25:31;;;;;;;65.97;28.67;;;13.80;99.90;;;;;;5078571;28;20431;-44
2022/10/14 11:28:11;;;;;;;56.35;25.90;;;13.50;99.90;;;;;;5062532;28;20043;-45
2022/10/14 11:30:37;;;;;;;50.70;26.08;;;13.50;99.90;;;;;;5077703;28;20047;-42
2022/10/14 11:33:26;;;;;;;46.05;24.42;;;13.80;99.90;;;;;;5078955;28;20032;-43
2022/10/14 11:36:26;;;;;;;41.88;24.27;;;13.90;99.90;;;;;;5080464;28;20500;-41
2022/10/14 11:39:04;;;;;;;42.88;23.83;;;13.50;99.90;;;;;;5080585;28;20063;-42
2022/10/14 11:41:48;;;;;;;42.55;24.02;;;14.10;99.90;;;;;;5080204;28;20039;-41
2022/10/14 11:44:20;;;;;;;;;;;13.60;99.90;;;;;;5081459;28;20125;-42
2022/10/14 11:46:52;;;;;;;28.70;19.98;;;14.00;99.90;;;;;;5083631;28;20362;-43
2022/10/14 11:49:26;;;;;;;25.42;18.65;;;13.90;99.90;;;;;;5080332;28;20335;-42
2022/10/14 11:51:58;;;;;;;24.65;17.63;;;13.80;99.90;;;;;;5073601;28;20515;-42
2022/10/14 11:54:42;;;;;;;27.15;18.65;;;14.10;99.90;;;;;;5066878;28;20522;-42
2022/10/14 11:57:26;;;;;;;23.80;17.92;;;14.20;99.90;;;;;;5077823;28;20535;-42
2022/10/14 12:00:00;;;;;;;24.52;17.70;;;14.50;99.90;;;;;;5079700;28;20395;-44
2022/10/14 12:02:44;;;;;;;20.10;17.00;;;14.60;99.90;;;;;;5080719;28;20372;-41
2022/10/14 12:05:29;;;;;;;22.13;16.70;;;14.30;99.90;;;;;;5080685;28;20835;-42
2022/10/14 12:08:13;;;;;;;;;;;14.10;99.90;;;;;;5081421;28;20132;-42
2022/10/14 12:10:50;;;;;;;20.30;16.57;;;14.30;99.90;;;;;;5083225;28;19924;-43
2022/10/14 12:13:20;;;;;;;21.35;17.33;;;14.10;99.90;;;;;;5086731;28;20278;-42
2022/10/14 12:15:51;;;;;;;22.20;17.63;;;14.80;99.90;;;;;;5078025;28;20082;-42
2022/10/14 12:18:21;;;;;;;18.60;16.13;;;14.70;99.90;;;;;;5041833;28;20045;-42
2022/10/14 12:20:59;;;;;;;21.00;17.58;;;14.70;99.90;;;;;;5043728;28;20032;-41
2022/10/14 12:23:36;;;;;;;20.17;17.05;;;14.20;99.90;;;;;;5045104;28;20040;-43
2022/10/14 12:26:37;;;;;;;19.05;17.02;;;14.70;99.90;;;;;;5042271;28;20044;-41
2022/10/14 12:29:03;;;;;;;18.52;16.45;;;14.30;99.90;;;;;;5044213;28;20433;-42
2022/10/14 12:31:37;;;;;;;18.85;16.50;;;14.80;99.90;;;;;;5043859;28;20109;-43
2022/10/14 12:34:16;;;;;;;18.40;16.50;;;14.20;99.90;;;;;;5046171;28;20982;-44
2022/10/14 12:36:46;;;;;;;20.35;18.15;;;14.80;99.90;;;;;;5040593;28;20050;-43
2022/10/14 12:39:18;;;;;;;19.17;17.17;;;14.60;99.90;;;;;;5041654;28;20040;-43
2022/10/14 12:41:58;;;;;;;19.95;17.85;;;14.70;99.90;;;;;;5042386;28;20037;-42
2022/10/14 12:44:29;;;;;;;21.13;18.80;;;14.60;99.90;;;;;;5045953;28;20476;-43
2022/10/14 12:46:54;;;;;;;20.48;18.25;;;14.80;99.90;;;;;;5046158;28;20059;-43